Latest Weather Observations for Neptune Island

IDS60801

Issued at 1:12 pm CDT Sunday 26 January 2020 (issued every 10 minutes, with the page automatically refreshed every 10 minutes)

About weather observations | Map of weather stations | Latest weather observations for SA | Other Formats
Station Details ID: 018115 Name: NEPTUNE ISLAND Lat: -35.34 Lon: 136.12 Height: 32.0 m
Data from the previous 72 hours. | See also: Recent months at Neptune Island
Date/Time
CDT
Temp
°C
App
Temp
°C
Dew
Point
°C
Rel
Hum
%
Delta-T
°C
Wind Press
QNH
hPa
Press
MSL
hPa
Rain since
9am
mm
Dir  Spd
km/h
Gust
km/h
Spd
kts
Gust
kts
26/01:00pm 20.1 - - - - W 13 15 7 8 1016.9 1016.8 0.0
26/12:30pm 19.3 - - - - W 11 13 6 7 1017.1 1017.0 0.0
26/12:00pm 19.3 - - - - W 13 17 7 9 1017.3 1017.2 0.0
26/11:30am 19.2 - - - - WSW 19 20 10 11 1017.2 1017.1 0.0
26/11:00am 19.0 - - - - W 11 13 6 7 1017.1 1017.0 0.0
26/10:30am 19.1 - - - - WNW 9 11 5 6 1017.0 1016.9 0.0
26/10:00am 18.6 - - - - WNW 6 7 3 4 1017.1 1017.0 0.0
26/09:30am 18.3 - - - - W 6 7 3 4 1016.9 1016.8 0.0
26/09:00am 18.0 - - - - WSW 11 13 6 7 1016.8 1016.7 0.0
26/08:30am 17.9 - - - - SW 17 20 9 11 1016.4 1016.3 0.0
26/08:00am 18.1 - - - - SW 13 15 7 8 1016.4 1016.3 0.0
26/07:30am 18.2 - - - - WNW 7 9 4 5 1015.9 1015.8 0.0
26/07:00am 18.0 - - - - WNW 7 9 4 5 1015.6 1015.5 0.0
26/06:30am 17.9 - - - - W 6 7 3 4 1015.5 1015.4 0.0
26/06:00am 18.1 - - - - SW 11 13 6 7 1015.3 1015.3 0.0
26/05:30am 18.1 - - - - WSW 15 17 8 9 1015.0 1015.0 0.0
26/05:00am 17.9 - - - - WSW 17 20 9 11 1014.8 1014.8 0.0
26/04:30am 18.0 - - - - WSW 19 20 10 11 1015.0 1015.0 0.0
26/04:00am 17.9 - - - - WSW 17 20 9 11 1014.9 1014.9 0.0
26/03:30am 18.0 - - - - WSW 19 20 10 11 1014.6 1014.6 0.0
26/03:00am 17.9 - - - - W 13 15 7 8 1014.0 1014.0 0.0
26/02:30am 18.1 - - - - WSW 15 17 8 9 1014.1 1014.1 0.0
26/02:00am 18.0 - - - - WSW 15 17 8 9 1014.2 1014.2 0.0
26/01:30am 17.9 - - - - WSW 11 13 6 7 1014.1 1014.1 0.0
26/01:00am 18.1 - - - - WSW 17 19 9 10 1014.4 1014.4 0.0
26/12:30am 18.3 - - - - WSW 19 22 10 12 1014.8 1014.8 0.0
26/12:00am 18.5 - - - - SW 19 22 10 12 1014.9 1014.9 0.0
 
Date/Time
CDT
Temp
°C
App
Temp
°C
Dew
Point
°C
Rel
Hum
%
Delta-T
°C
Wind Press
QNH
hPa
Press
MSL
hPa
Rain since
9am
mm
Dir  Spd
km/h
Gust
km/h
Spd
kts
Gust
kts
25/11:30pm 18.3 - - - - SW 26 30 14 16 1015.2 1015.2 0.0
25/11:00pm 18.5 - - - - WSW 17 19 9 10 1015.6 1015.5 0.0
25/10:30pm 18.4 - - - - WSW 22 26 12 14 1015.6 1015.5 0.0
25/10:00pm 18.6 - - - - WSW 24 28 13 15 1015.6 1015.5 0.0
25/09:30pm 18.7 - - - - WSW 26 32 14 17 1015.3 1015.3 0.0
25/09:00pm 19.0 - - - - WSW 24 28 13 15 1015.0 1015.0 0.0
25/08:30pm 19.1 - - - - WSW 24 28 13 15 1014.9 1014.9 0.0
25/08:00pm 19.3 - - - - W 22 26 12 14 1014.5 1014.5 0.0
25/07:30pm 19.7 - - - - W 20 22 11 12 1014.3 1014.3 0.0
25/07:00pm 19.8 - - - - W 19 22 10 12 1014.0 1014.0 0.0
25/06:30pm 20.1 - - - - W 24 28 13 15 1014.1 1014.1 0.0
25/06:00pm 20.7 - - - - W 24 28 13 15 1014.0 1014.0 0.0
25/05:30pm 20.9 - - - - W 22 26 12 14 1014.0 1014.0 0.0
25/05:00pm 21.0 - - - - W 22 26 12 14 1014.1 1014.1 0.0
25/04:30pm 21.1 - - - - WNW 20 22 11 12 1014.3 1014.3 0.0
25/04:00pm 20.5 - - - - WNW 20 26 11 14 1014.5 1014.5 0.0
25/03:30pm 21.4 - - - - NW 20 22 11 12 1014.7 1014.7 0.0
25/03:00pm 20.8 - - - - NW 24 28 13 15 1014.9 1014.9 0.0
25/02:30pm 21.0 - - - - WNW 24 28 13 15 1015.0 1015.0 0.0
25/02:00pm 19.8 - - - - NW 24 28 13 15 1015.2 1015.2 0.0
25/01:30pm 20.6 - - - - NW 22 28 12 15 1015.5 1015.4 0.0
25/01:00pm 20.4 - - - - NW 20 26 11 14 1015.8 1015.7 0.0
25/12:30pm 19.6 - - - - NW 22 26 12 14 1015.9 1015.8 0.0
25/12:00pm 20.0 - - - - NNW 20 24 11 13 1015.8 1015.7 0.0
25/11:30am 20.3 - - - - NNW 20 22 11 12 1015.9 1015.8 0.0
25/11:00am 19.7 - - - - NW 20 24 11 13 1015.7 1015.6 0.0
25/10:30am 19.5 - - - - NNW 20 24 11 13 1015.6 1015.5 0.0
25/10:00am 19.4 - - - - NNW 22 26 12 14 1015.6 1015.5 0.0
25/09:30am 19.2 - - - - NNW 22 28 12 15 1015.6 1015.5 0.0
25/09:00am 18.9 - - - - NNW 24 28 13 15 1015.5 1015.4 0.0
25/08:30am 18.5 - - - - NNW 24 28 13 15 1015.2 1015.2 0.0
25/08:00am 18.2 - - - - NW 26 32 14 17 1015.0 1015.0 0.0
25/07:30am 17.8 - - - - NNW 24 28 13 15 1014.9 1014.9 0.0
25/07:00am 17.7 - - - - NNW 22 26 12 14 1014.7 1014.7 0.0
25/06:30am 17.8 - - - - NW 22 26 12 14 1014.6 1014.6 0.0
25/06:00am 18.0 - - - - NNW 24 28 13 15 1014.6 1014.6 0.0
25/05:30am 18.2 - - - - NNW 24 28 13 15 1014.3 1014.3 0.0
25/05:00am 18.0 - - - - NW 19 22 10 12 1014.1 1014.1 0.0
25/04:30am 18.0 - - - - NW 20 24 11 13 1014.1 1014.1 0.0
25/04:00am 18.0 - - - - NW 20 24 11 13 1014.1 1014.1 0.0
25/03:30am 18.1 - - - - NW 19 22 10 12 1014.2 1014.2 0.0
25/03:00am 18.0 - - - - NW 20 24 11 13 1014.4 1014.4 0.0
25/02:30am 18.1 - - - - WNW 20 24 11 13 1014.6 1014.6 0.0
25/02:00am 18.1 - - - - WNW 20 24 11 13 1014.9 1014.9 0.0
25/01:30am 18.3 - - - - WNW 17 20 9 11 1014.9 1014.9 0.0
25/01:00am 18.1 - - - - WNW 20 22 11 12 1015.0 1015.0 0.0
25/12:30am 18.2 - - - - WNW 20 24 11 13 1015.0 1015.0 0.0
25/12:00am 18.1 - - - - WNW 20 24 11 13 1014.9 1014.9 0.0
 
Date/Time
CDT
Temp
°C
App
Temp
°C
Dew
Point
°C
Rel
Hum
%
Delta-T
°C
Wind Press
QNH
hPa
Press
MSL
hPa
Rain since
9am
mm
Dir  Spd
km/h
Gust
km/h
Spd
kts
Gust
kts
24/11:30pm 18.3 - - - - WNW 20 26 11 14 1015.0 1015.0 0.0
24/11:00pm 18.4 - - - - WNW 19 20 10 11 1015.0 1015.0 0.0
24/10:30pm 18.4 - - - - WNW 20 24 11 13 1014.9 1014.9 0.0
24/10:00pm 18.6 - - - - W 22 24 12 13 1014.6 1014.6 0.0
24/09:30pm 18.6 - - - - WNW 28 33 15 18 1014.4 1014.4 0.0
24/09:00pm 18.7 - - - - WNW 26 30 14 16 1014.4 1014.4 0.0
24/08:30pm 18.6 - - - - WNW 30 35 16 19 1014.3 1014.3 0.0
24/08:00pm 18.8 - - - - WNW 30 35 16 19 1014.0 1014.0 0.0
24/07:30pm 19.3 - - - - WNW 33 37 18 20 1013.9 1013.9 0.0
24/07:00pm 19.6 - - - - WNW 30 35 16 19 1013.6 1013.6 0.0
24/06:30pm 20.1 - - - - WNW 30 35 16 19 1013.5 1013.5 0.0
24/06:00pm 20.4 - - - - WNW 32 33 17 18 1013.2 1013.2 0.0
24/05:30pm 20.5 - - - - WNW 32 35 17 19 1013.3 1013.3 0.0
24/05:00pm 20.2 - - - - WNW 32 39 17 21 1013.5 1013.5 0.0
24/04:30pm 20.5 - - - - WNW 30 35 16 19 1013.8 1013.8 0.0
24/04:00pm 20.8 - - - - NW 26 30 14 16 1014.1 1014.1 0.0
24/03:30pm 19.7 - - - - NW 30 33 16 18 1014.3 1014.3 0.0
24/03:00pm 19.4 - - - - WNW 32 37 17 20 1014.5 1014.5 0.0
24/02:30pm 19.4 - - - - NW 30 33 16 18 1014.8 1014.8 0.0
24/02:00pm 19.6 - - - - WNW 32 35 17 19 1014.9 1014.9 0.0
24/01:30pm 19.2 - - - - WNW 33 37 18 20 1014.8 1014.8 0.0
24/01:00pm 18.5 - - - - NW 32 39 17 21 1014.9 1014.9 0.0
24/12:30pm 19.0 - - - - NW 24 32 13 17 1014.9 1014.9 0.0
24/12:00pm 18.5 - - - - WNW 32 35 17 19 1014.6 1014.6 0.0
24/11:30am 17.3 - - - - WNW 37 48 20 26 1014.5 1014.5 0.0
24/11:00am 18.6 - - - - NW 30 39 16 21 1014.4 1014.4 0.0
24/10:30am 18.4 - - - - NW 30 37 16 20 1014.1 1014.1 0.0
24/10:00am 18.2 - - - - WNW 32 37 17 20 1013.9 1013.9 0.0
24/09:30am 17.5 - - - - WNW 30 35 16 19 1013.8 1013.8 0.0
24/09:00am 17.3 - - - - W 33 37 18 20 1013.3 1013.3 0.2
24/08:30am 17.2 - - - - WNW 26 30 14 16 1013.1 1013.1 0.2
24/08:00am 16.8 - - - - WNW 28 32 15 17 1012.8 1012.8 0.2
24/07:30am 16.1 - - - - WNW 26 35 14 19 1012.4 1012.4 0.2
24/07:00am 17.0 - - - - WNW 32 43 17 23 1012.1 1012.1 0.2
24/06:30am 17.0 - - - - W 32 39 17 21 1011.6 1011.5 0.2
24/06:00am 17.0 - - - - W 35 41 19 22 1011.3 1011.2 0.2
24/05:30am 16.9 - - - - W 37 46 20 25 1011.1 1011.0 0.2
24/05:00am 17.1 - - - - W 32 39 17 21 1011.1 1011.0 0.2
24/04:30am 16.8 - - - - WNW 28 32 15 17 1010.9 1010.8 0.2
24/04:00am 16.4 - - - - W 39 44 21 24 1010.9 1010.8 0.2
24/03:30am 16.9 - - - - W 32 35 17 19 1010.6 1010.5 0.2
24/03:00am 16.8 - - - - W 35 41 19 22 1010.8 1010.7 0.2
24/02:30am 16.8 - - - - W 37 43 20 23 1010.7 1010.6 0.2
24/02:00am 16.8 - - - - W 35 41 19 22 1010.9 1010.8 0.2
24/01:30am 16.9 - - - - W 41 46 22 25 1010.9 1010.8 0.2
24/01:00am 16.9 - - - - W 39 44 21 24 1011.0 1010.9 0.2
24/12:30am 16.8 - - - - W 39 44 21 24 1010.9 1010.8 0.2
24/12:00am 16.7 - - - - W 35 41 19 22 1010.8 1010.7 0.2
 
Date/Time
CDT
Temp
°C
App
Temp
°C
Dew
Point
°C
Rel
Hum
%
Delta-T
°C
Wind Press
QNH
hPa
Press
MSL
hPa
Rain since
9am
mm
Dir  Spd
km/h
Gust
km/h
Spd
kts
Gust
kts
23/11:30pm 16.7 - - - - W 35 43 19 23 1010.9 1010.8 0.2
23/11:00pm 16.4 - - - - W 33 43 18 23 1010.8 1010.7 0.2
23/10:30pm 16.1 - - - - W 39 48 21 26 1010.6 1010.5 0.2
23/10:00pm 16.4 - - - - W 41 48 22 26 1010.4 1010.3 0.2
23/09:30pm 16.5 - - - - W 39 48 21 26 1010.2 1010.1 0.2
23/09:00pm 16.5 - - - - W 35 41 19 22 1009.9 1009.8 0.2
23/08:30pm 16.5 - - - - WSW 37 44 20 24 1009.4 1009.3 0.2
23/08:00pm 16.8 - - - - W 41 48 22 26 1008.9 1008.8 0.2
23/07:30pm 17.1 - - - - W 35 43 19 23 1008.5 1008.4 0.2
23/07:00pm 17.1 - - - - W 43 50 23 27 1008.1 1008.0 0.2
23/06:30pm 17.1 - - - - W 43 50 23 27 1007.8 1007.7 0.2
23/06:00pm 16.5 - - - - WSW 35 46 19 25 1007.6 1007.5 0.2
23/05:30pm 16.7 - - - - WSW 35 41 19 22 1007.2 1007.1 0.2
23/05:00pm 17.4 - - - - W 37 44 20 24 1007.0 1006.9 0.2
23/04:30pm 18.0 - - - - WSW 32 37 17 20 1007.1 1007.0 0.2
23/04:00pm 17.6 - - - - W 39 46 21 25 1006.8 1006.7 0.2
23/03:30pm 17.5 - - - - W 41 48 22 26 1006.5 1006.4 0.2
23/03:00pm 17.9 - - - - W 41 48 22 26 1006.3 1006.2 0.2
23/02:30pm 18.0 - - - - W 43 50 23 27 1005.9 1005.8 0.2
23/02:00pm 17.6 - - - - W 43 48 23 26 1005.7 1005.6 0.2
23/01:30pm 17.4 - - - - WSW 39 46 21 25 1005.5 1005.4 0.2

Other formats

Comma delimited format used in spreadsheet applications
http://www.bom.gov.au/fwo/IDS60801/IDS60801.94804.axf

JavaScript Object Notation format (JSON) in row-major order
http://www.bom.gov.au/fwo/IDS60801/IDS60801.94804.json

Data quality

Most of these data are generated automatically and are frequently updated. Quality checks on data are not normally performed. It is possible for incorrect values to appear. Refer to information at About Latest Weather Observations and please check the disclaimer before using these data.